VTSP Airport Information

Runway Information
Runway 09 Length 9843 ft width 148 ft
Elevation 19 ft Threshold 0 ft Heading 85
Runway 27 Length 9843 ft Width 148 ft
Elevation 82 ft Threshold 0 ft Heading 265
Airport Frequencies
Type APP Name APP Frequency 124.7 MHZ
Type ATIS Name ATIS Frequency 128 MHZ
Type GND Name GND Frequency 121.9 MHZ
Type TWR Name TWR Frequency 118.1 MHZ
Airport Navaids
Type NDB Name Phuket Frequency 360 KHZ
Type VOR-DME Name Phuket Frequency 116900 KHZ
Airport Weather Information & NOTAM
ADDS - METARS form results

(1753 UTC 17 August 2019)
Data provider http://aviationweather.gov/metar/data/
 
METAR text: VTSP 171730Z VRB02KT 8000 FEW020 25/23 Q1013 NOSIG
Conditions at: VTSP (PHUKET INTL AIRP, TH) observed 1730 UTC 17 August 2019
Temperature: 25.0°C (77°F)
Dewpoint: 23.0°C (73°F) [RH = 89%]
Pressure (altimeter): 29.91 inches Hg (1013.0 mb)
Winds: variable direction winds at 2 MPH (2 knots; 1.0 m/s)
Visibility: 5 miles ( 8 km)
Ceiling: at least 12,000 feet AGL
Clouds: few clouds at 2000 feet AGL
Weather: no significant weather observed at this time

METAR text: VTSP 171700Z 00000KT 8000 FEW020 25/23 Q1013 NOSIG
Conditions at: VTSP (PHUKET INTL AIRP, TH) observed 1700 UTC 17 August 2019
Temperature: 25.0°C (77°F)
Dewpoint: 23.0°C (73°F) [RH = 89%]
Pressure (altimeter): 29.91 inches Hg (1013.0 mb)
Winds: calm
Visibility: 5 miles ( 8 km)
Ceiling: at least 12,000 feet AGL
Clouds: few clouds at 2000 feet AGL
Weather: no significant weather observed at this time

Forecast for: VTSP (PHUKET INTL AIRP, TH)
Text: TAF VTSP 171700Z 1718/1824 00000KT 9999 SCT020
Forecast period: 1800 UTC 17 August 2019 to 0200 UTC 18 August 2019
Forecast type: FROM: standard forecast or significant change
Winds: calm
Visibility: 6 or more miles 10+ km)
Ceiling: at least 12,000 feet AGL
Clouds: scattered clouds at 2000 feet AGL
Weather: no significant weather forecast for this period
Text: BECMG 1802/1804 28008KT
Forecast period: 0200 to 1400 UTC 18 August 2019
Forecast type: BECOMING: Conditions expected to become as follows by 0400 UTC 18 August 2019
Winds: from the W (280 degrees) at 9 MPH (8 knots; 4.1 m/s)
Visibility: 6 or more miles 10+ km)
Ceiling: at least 12,000 feet AGL
Clouds: scattered clouds at 2000 feet AGL
Weather: no significant weather forecast for this period
Text: BECMG 1814/1816 00000KT
Forecast period: 1400 UTC 18 August 2019 to 0000 UTC 19 August 2019
Forecast type: BECOMING: Conditions expected to become as follows by 1600 UTC 18 August 2019
Winds: calm
Visibility: 6 or more miles 10+ km)
Ceiling: at least 12,000 feet AGL
Clouds: scattered clouds at 2000 feet AGL
Weather: no significant weather forecast for this period